Pagrindinis puslapis
METAR-TAF:

METAR-TAF

Oro uostai :

Foz do Iguasu, Parana, Brazilija

platuma: 25-31S, ilguma: 054-35W, Aukštis: 180 m

Dabartinis oras

Ataskaita buvo paskelbta 59 minutes, ne 15:00 UTC
Vėjas 14 kt iš Šiaurės/Šiaurės Rytų
Temperatūra 34°C
Drėgmė 34%
Slėgis 1011 hPa
Matomumas 10 km arba daugiau
nėra debesų žemiau 1500 m ir nėra kamuolinių lietaus debesų

METAR: SBFI 151500Z 02014KT CAVOK 34/16 Q1011

Laikas: 12:59 (15:59 UTC)

Prognozė

Ataskaita buvo paskelbta 6 valandos ir 29 minutes, ne 09:30 UTC
Prognozė galioja nuo 15 metu 12 UTC su 16 metu 12 UTC
Vėjas 6 kt iš Rytų
Matomumas 10 km arba daugiau
nėra debesų žemiau 1500 m ir nėra kamuolinių lietaus debesų
Tapsmas
nuo 15 metu 12 UTC su 15 metu 14 UTC
Vėjas 9 kt iš Šiaurės/Šiaurės Rytų
Tapsmas
nuo 15 metu 23 UTC su 16 metu 01 UTC
Vėjas 4 kt iš Rytų

TAF: SBFI 150930Z 1512/1612 10006KT CAVOK TX36/1518Z TN25/1608Z BECMG 1512/1514 03009KT BECMG 1523/1601 10004KT RMK PER

Orai ataskaitas ir orų prognozės (METAR, TAF).

turimą stotys yra geltonos ir raudonos taškus žemėlapyje.

Perkelti pele per norėdami pamatyti stoties vardą.

Tada spustelėkite, norėdami matyti oro stebėjimo ir prognozės.

Norėdami pakeisti žemėlapį: spustelėkite ant žalios mygtukų su juodo kryžiaus žemyn,; žalią mygtuką su brūkšneliu, jei norite nutolinti; arba žalių rodyklių gretimoms žemėlapius.


METAR-TAF: